Time;durP1;ratioP1;P1;durP2;ratioP2;P2;SDS_P1;SDS_P2;PMS_P1;PMS_P2;Temp;Humidity;BMP_temperature;BMP_pressure;BME280_temperature;BME280_humidity;BME280_pressure;Samples;Min_cycle;Max_cycle;Signal;HPM_P1;HPM_P2
2022/09/09 00:07:57;;;;;;;1.00;0.40;;;18.70;99.90;;;;;;20935086;28;20621;-76
2022/09/09 00:18:23;;;;;;;0.43;0.30;;;;;;;;;;20904370;28;20636;-76
2022/09/09 00:28:26;;;;;;;1.60;0.50;;;18.60;99.90;;;;;;20903556;28;20483;-76
2022/09/09 00:38:32;;;;;;;0.67;0.30;;;18.70;99.90;;;;;;20950993;28;20689;-76
2022/09/09 00:48:46;;;;;;;0.40;0.30;;;;;;;;;;20985352;28;20270;-75
2022/09/09 00:59:24;;;;;;;0.20;0.20;;;18.70;99.90;;;;;;20934227;28;20213;-76
2022/09/09 01:09:51;;;;;;;0.60;0.40;;;;;;;;;;20964966;28;20592;-76
2022/09/09 01:19:54;;;;;;;0.80;0.40;;;;;;;;;;20957848;28;20554;-76
2022/09/09 01:29:55;;;;;;;1.90;0.47;;;;;;;;;;20943222;28;20213;-76
2022/09/09 01:39:58;;;;;;;2.20;0.40;;;;;;;;;;20971708;28;20708;-76
2022/09/09 01:50:00;;;;;;;0.70;0.30;;;;;;;;;;21032182;28;20225;-76
2022/09/09 02:00:12;;;;;;;1.30;0.40;;;18.40;99.90;;;;;;21047768;28;20583;-76
2022/09/09 02:10:21;;;;;;;0.97;0.40;;;18.30;99.90;;;;;;21064907;28;20216;-76
2022/09/09 02:20:33;;;;;;;1.23;0.67;;;;;;;;;;21049819;28;20606;-76
2022/09/09 02:30:38;;;;;;;1.33;0.40;;;18.10;99.90;;;;;;21050109;28;20209;-76
2022/09/09 02:40:40;;;;;;;1.40;0.47;;;;;;;;;;21044316;28;20220;-76
2022/09/09 02:51:20;;;;;;;2.03;0.60;;;18.00;99.90;;;;;;21058620;28;20309;-76
2022/09/09 03:01:22;;;;;;;2.20;0.30;;;;;;;;;;21076454;28;20258;-75
2022/09/09 03:11:24;;;;;;;1.57;0.70;;;;;;;;;;21058799;28;20200;-75
2022/09/09 03:21:26;;;;;;;0.40;0.30;;;;;;;;;;21041377;28;20780;-76
2022/09/09 03:31:30;;;;;;;0.20;0.20;;;;;;;;;;21040280;28;20228;-75
2022/09/09 03:41:33;;;;;;;0.90;0.30;;;;;;;;;;21056808;28;20281;-75
2022/09/09 03:51:38;;;;;;;1.40;0.30;;;;;;;;;;21022311;28;20768;-75
2022/09/09 04:01:41;;;;;;;0.77;0.43;;;;;;;;;;21056721;28;20251;-75
2022/09/09 04:11:43;;;;;;;0.40;0.30;;;;;;;;;;21056300;28;20235;-76
2022/09/09 04:21:45;;;;;;;0.37;0.23;;;;;;;;;;21038136;28;20255;-76
2022/09/09 04:31:47;;;;;;;0.37;0.27;;;;;;;;;;21053525;28;20205;-75
2022/09/09 04:41:49;;;;;;;2.07;0.20;;;;;;;;;;21020444;28;20224;-74
2022/09/09 04:51:52;;;;;;;1.30;0.30;;;;;;;;;;21035749;28;20216;-74
2022/09/09 05:01:55;;;;;;;0.10;0.10;;;;;;;;;;21051382;28;20217;-74
2022/09/09 05:11:58;;;;;;;1.10;0.20;;;;;;;;;;21051036;28;20204;-75
2022/09/09 05:22:07;;;;;;;0.20;0.20;;;;;;;;;;21022608;28;20677;-75
2022/09/09 05:32:17;;;;;;;1.80;0.20;;;;;;;;;;20938960;28;20216;-75
2022/09/09 05:42:22;;;;;;;0.30;0.20;;;;;;;;;;20963543;28;20217;-75
2022/09/09 05:52:26;;;;;;;1.33;0.50;;;;;;;;;;20979620;22;20297;-73
2022/09/09 06:02:27;;;;;;;5.07;2.23;;;;;;;;;;20991887;28;20249;-73
2022/09/09 06:12:30;;;;;;;0.57;0.30;;;;;;;;;;21029811;28;20212;-73
2022/09/09 06:22:31;;;;;;;1.03;0.20;;;;;;;;;;21080210;28;20772;-73
2022/09/09 06:32:34;;;;;;;0.50;0.20;;;;;;;;;;21079470;28;20619;-73
2022/09/09 06:42:37;;;;;;;3.80;1.00;;;;;;;;;;21059675;28;20233;-71
2022/09/09 06:52:54;;;;;;;0.40;0.30;;;;;;;;;;21002439;28;20220;-71
2022/09/09 07:02:56;;;;;;;1.13;0.30;;;;;;;;;;21020545;28;20212;-71
2022/09/09 07:12:59;;;;;;;0.80;0.50;;;;;;;;;;20980026;28;20227;-72
2022/09/09 07:23:02;;;;;;;1.00;0.40;;;;;;;;;;21035978;28;20224;-72
2022/09/09 07:33:04;;;;;;;0.87;0.27;;;;;;;;;;20986510;28;20214;-73
2022/09/09 07:43:07;;;;;;;1.13;0.37;;;;;;;;;;21020274;28;20224;-73
2022/09/09 07:53:09;;;;;;;2.40;0.77;;;;;;;;;;20965636;28;20221;-73
2022/09/09 08:03:10;;;;;;;1.87;0.40;;;;;;;;;;20966746;28;20217;-75
2022/09/09 08:13:14;;;;;;;1.70;0.30;;;;;;;;;;20950682;28;20263;-74
2022/09/09 08:23:16;;;;;;;1.67;0.50;;;;;;;;;;20966125;28;20229;-73
2022/09/09 08:33:18;;;;;;;0.83;0.40;;;;;;;;;;20884249;28;20226;-72
2022/09/09 08:43:22;;;;;;;1.00;0.40;;;;;;;;;;20962103;28;20222;-73
2022/09/09 08:53:25;;;;;;;1.90;0.53;;;;;;;;;;20982886;28;20221;-73
2022/09/09 09:03:47;;;;;;;1.43;0.47;;;;;;;;;;20994149;28;20215;-73
2022/09/09 09:13:55;;;;;;;1.83;0.53;;;;;;;;;;21034512;28;20212;-74
2022/09/09 09:24:01;;;;;;;0.70;0.40;;;;;;;;;;21038450;28;20482;-72
2022/09/09 09:34:08;;;;;;;1.50;0.40;;;19.00;99.90;;;;;;21019375;28;20235;-71
2022/09/09 09:44:23;;;;;;;2.13;0.70;;;;;;;;;;21059425;28;20222;-77
2022/09/09 09:54:38;;;;;;;1.67;0.50;;;;;;;;;;21057323;28;20269;-77
2022/09/09 10:04:41;;;;;;;2.50;0.60;;;;;;;;;;21030376;28;20379;-77
2022/09/09 10:15:05;;;;;;;0.77;0.30;;;19.70;99.90;;;;;;21057481;28;20237;-77
2022/09/09 10:25:37;;;;;;;4.20;1.00;;;;;;;;;;21049882;28;20686;-76
2022/09/09 10:35:48;;;;;;;1.17;0.50;;;;;;;;;;21062220;28;20212;-77
2022/09/09 10:46:07;;;;;;;0.57;0.40;;;;;;;;;;21044510;28;20206;-77
2022/09/09 10:56:11;;;;;;;2.40;0.60;;;;;;;;;;21077084;28;20290;-77
2022/09/09 11:06:17;;;;;;;0.70;0.30;;;20.30;99.90;;;;;;21060264;28;20273;-77
2022/09/09 11:16:34;;;;;;;3.40;0.40;;;;;;;;;;21074504;28;20282;-77
2022/09/09 11:26:47;;;;;;;1.80;1.00;;;;;;;;;;21058326;28;20203;-77
2022/09/09 11:37:27;;;;;;;1.00;0.60;;;20.60;99.90;;;;;;20983037;28;20717;-77
2022/09/09 11:47:31;;;;;;;2.40;0.60;;;;;;;;;;20943109;28;20286;-77
2022/09/09 11:57:35;;;;;;;2.87;0.50;;;;;;;;;;20945442;28;20235;-77
2022/09/09 12:07:58;;;;;;;1.77;0.73;;;20.80;99.90;;;;;;20921260;28;20220;-75
2022/09/09 12:18:01;;;;;;;1.43;0.40;;;;;;;;;;21020990;28;20646;-76
2022/09/09 12:28:18;;;;;;;0.93;0.50;;;21.80;99.90;;;;;;21026272;28;20671;-77
2022/09/09 12:38:33;;;;;;;1.03;0.67;;;;;;;;;;21046336;28;20219;-76
2022/09/09 12:48:37;;;;;;;0.90;0.30;;;;;;;;;;20974915;28;20670;-77
2022/09/09 12:58:46;;;;;;;2.63;0.30;;;20.50;99.90;;;;;;21047684;28;20706;-77
2022/09/09 13:08:48;;;;;;;3.90;0.97;;;;;;;;;;21061043;28;20201;-76
2022/09/09 13:18:49;;;;;;;0.27;0.27;;;21.00;99.90;;;;;;21059071;28;20274;-77
2022/09/09 13:28:53;;;;;;;0.97;0.40;;;;;;;;;;21007416;28;20269;-76
2022/09/09 13:38:57;;;;;;;2.03;0.30;;;20.90;99.90;;;;;;21062160;28;20266;-78
2022/09/09 13:49:01;;;;;;;1.47;0.53;;;;;;;;;;21069665;28;20295;-79
2022/09/09 13:59:04;;;;;;;0.57;0.20;;;;;;;;;;21068568;28;20266;-78
2022/09/09 14:09:06;;;;;;;0.60;0.37;;;21.20;99.90;;;;;;21047947;28;20209;-77
2022/09/09 14:19:09;;;;;;;1.17;0.32;;;21.10;99.90;;;;;;21041137;28;20631;-77
2022/09/09 14:29:11;;;;;;;0.23;0.23;;;;;;;;;;21035782;28;20216;-77
2022/09/09 14:39:13;;;;;;;1.90;0.27;;;;;;;;;;21059745;28;20775;-78
2022/09/09 14:49:15;;;;;;;1.10;0.40;;;;;;;;;;20980873;28;20306;-77
2022/09/09 14:59:17;;;;;;;3.90;0.50;;;;;;;;;;21003793;28;20237;-77
2022/09/09 15:09:19;;;;;;;0.67;0.30;;;;;;;;;;20982747;28;20203;-76
2022/09/09 15:19:21;;;;;;;0.47;0.30;;;;;;;;;;20980844;28;20723;-76
2022/09/09 15:29:23;;;;;;;0.90;0.40;;;;;;;;;;21005488;28;20283;-77
2022/09/09 15:39:25;;;;;;;0.73;0.23;;;;;;;;;;21033590;28;20308;-75
2022/09/09 15:49:27;;;;;;;0.67;0.33;;;;;;;;;;20968327;28;20208;-75
2022/09/09 15:59:29;;;;;;;0.43;0.20;;;;;;;;;;20982322;28;20273;-75
2022/09/09 16:09:31;;;;;;;0.50;0.30;;;;;;;;;;21004031;28;20330;-74
2022/09/09 16:19:34;;;;;;;0.97;0.20;;;;;;;;;;21019390;28;20274;-77
2022/09/09 16:29:36;;;;;;;0.37;0.30;;;;;;;;;;21030415;28;20208;-76
2022/09/09 16:39:38;;;;;;;0.23;0.10;;;;;;;;;;20977469;28;20291;-76
2022/09/09 16:49:40;;;;;;;10.30;9.30;;;;;;;;;;20961019;28;20212;-77
2022/09/09 16:59:41;;;;;;;2.20;2.00;;;;;;;;;;20976815;28;20219;-77
2022/09/09 17:09:44;;;;;;;1.87;1.03;;;;;;;;;;20976305;28;20221;-75
2022/09/09 17:19:46;;;;;;;2.80;1.40;;;19.80;99.90;;;;;;20972104;28;20216;-72
2022/09/09 17:29:49;;;;;;;1.17;0.37;;;;;;;;;;20974242;28;20281;-76
2022/09/09 17:39:51;;;;;;;3.50;0.40;;;;;;;;;;20970112;28;20235;-76
2022/09/09 17:49:53;;;;;;;3.43;0.50;;;;;;;;;;20988602;28;20632;-76
2022/09/09 17:59:54;;;;;;;1.27;0.50;;;;;;;;;;21013058;28;20250;-76
2022/09/09 18:09:56;;;;;;;0.80;0.30;;;;;;;;;;21017032;28;20213;-76
2022/09/09 18:19:58;;;;;;;2.20;0.40;;;;;;;;;;21071834;28;20292;-77
2022/09/09 18:30:00;;;;;;;0.33;0.33;;;;;;;;;;21052405;28;20631;-77
2022/09/09 18:40:02;;;;;;;0.50;0.30;;;;;;;;;;20998128;28;20223;-77
2022/09/09 18:50:04;;;;;;;1.13;0.40;;;;;;;;;;20989523;28;20219;-76
2022/09/09 19:00:09;;;;;;;0.60;0.30;;;;;;;;;;20988128;28;20229;-76
2022/09/09 19:10:10;;;;;;;0.30;0.20;;;;;;;;;;20992639;28;20331;-75
2022/09/09 19:20:12;;;;;;;0.40;0.30;;;;;;;;;;20990798;28;20218;-75
2022/09/09 19:30:14;;;;;;;0.33;0.27;;;;;;;;;;21039342;28;20214;-75
2022/09/09 19:40:16;;;;;;;0.50;0.20;;;;;;;;;;21066936;28;20216;-75
2022/09/09 19:50:18;;;;;;;0.27;0.20;;;;;;;;;;21069289;28;20315;-76
2022/09/09 20:00:20;;;;;;;0.67;0.30;;;;;;;;;;21052341;28;20512;-76
2022/09/09 20:10:22;;;;;;;0.50;0.20;;;;;;;;;;21053776;28;20223;-76
2022/09/09 20:20:23;;;;;;;0.53;0.37;;;;;;;;;;21065092;28;20238;-76
2022/09/09 20:30:25;;;;;;;0.20;0.20;;;;;;;;;;21067992;28;20169;-74
2022/09/09 20:40:31;;;;;;;0.50;0.30;;;;;;;;;;21051624;28;20236;-74
2022/09/09 20:50:35;;;;;;;0.57;0.20;;;17.70;99.90;;;;;;21070750;28;20173;-74
2022/09/09 21:00:37;;;;;;;0.20;0.20;;;;;;;;;;21046485;28;20628;-77
2022/09/09 21:10:43;;;;;;;0.40;0.30;;;;;;;;;;21013901;28;20256;-77
2022/09/09 21:20:45;;;;;;;0.30;0.20;;;17.70;99.90;;;;;;20982091;28;20217;-77
2022/09/09 21:30:49;;;;;;;0.20;0.20;;;;;;;;;;20982059;28;20271;-77
2022/09/09 21:40:51;;;;;;;0.40;0.40;;;;;;;;;;20995282;28;20210;-77
2022/09/09 21:50:53;;;;;;;0.20;0.20;;;;;;;;;;20979827;28;20207;-77
2022/09/09 22:00:55;;;;;;;0.50;0.20;;;;;;;;;;20980779;28;20242;-77
2022/09/09 22:10:57;;;;;;;0.40;0.10;;;;;;;;;;20997442;28;20662;-77
2022/09/09 22:20:58;;;;;;;0.87;0.40;;;;;;;;;;20975965;28;20267;-76
2022/09/09 22:31:01;;;;;;;0.20;0.20;;;;;;;;;;20975332;28;20279;-78
2022/09/09 22:41:03;;;;;;;0.60;0.23;;;;;;;;;;20992739;28;20278;-77
2022/09/09 22:51:06;;;;;;;1.50;0.30;;;;;;;;;;21030354;28;20593;-77
2022/09/09 23:01:10;;;;;;;0.27;0.20;;;17.30;99.90;;;;;;21073536;28;20224;-77
2022/09/09 23:11:13;;;;;;;0.87;0.40;;;;;;;;;;21057122;28;20636;-77
2022/09/09 23:21:15;;;;;;;1.73;0.60;;;;;;;;;;21075507;28;20703;-75
2022/09/09 23:31:18;;;;;;;0.30;0.30;;;;;;;;;;21058662;28;20231;-76
2022/09/09 23:41:20;;;;;;;0.50;0.20;;;;;;;;;;21074338;28;20220;-77
2022/09/09 23:51:24;;;;;;;0.57;0.40;;;17.00;99.90;;;;;;21073794;28;20221;-77
